Flight Track Log - Related Links

Times and Time Zones

All times are in EDT time to prevent confusion due to time zone crossing. See the N797MA flight status page for this flight to view local times or setup timezone preferences in your user account.

Time Position Orientation Groundspeed Altitude Reporting Facility
EDT Latitude Longitude Course Direction KTS MPH feet Rate Location/Type
Sun 10:18:10 AM 41.8000 -88.5000 268° West 146 168 1,900  Level Chicago TRACON
Sun 11:12:51 AM 41.6453 -91.9703 266° West 184 212 6,000 74 Climbing Chicago Center
Sun 11:13:51 AM 41.6419 -92.0286 263° West 184 212 6,000  Level Chicago Center
Sun 11:14:51 AM 41.6361 -92.0950 266° West 178 205 6,000  Level Chicago Center
Sun 11:15:51 AM 41.6325 -92.1586 266° West 178 205 6,000  Level Chicago Center
Sun 11:16:51 AM 41.6286 -92.2253 263° West 178 205 6,000  Level Chicago Center
Sun 11:17:51 AM 41.6231 -92.2889 265° West 178 205 6,000  Level Chicago Center
Sun 11:18:51 AM 41.6192 -92.3525 265° West 178 205 6,000  Level Chicago Center
Sun 11:19:51 AM 41.6153 -92.4164 266° West 183 211 6,000  Level Chicago Center
Sun 11:20:51 AM 41.6114 -92.4828 270° West 183 211 6,000  Level Chicago Center
Sun 11:22:55 AM 41.6111 -92.6267 263° West 180 207 6,000  Level Minneapolis Center
Sun 11:23:56 AM 41.6053 -92.6931 266° West 179 206 6,000  Level Minneapolis Center
Sun 11:24:56 AM 41.6017 -92.7597 265° West 177 204 6,000  Level Minneapolis Center
Sun 11:25:57 AM 41.5978 -92.8236 263° West 175 201 6,000  Level Minneapolis Center
Sun 11:26:57 AM 41.5919 -92.8900 268° West 175 201 6,000  Level Minneapolis Center
Sun 11:27:52 AM 41.5903 -92.9456 266° West 175 201 6,000  Level Minneapolis Center
Sun 11:28:53 AM 41.5864 -93.0147 263° West 175 201 6,000 -50 Level Minneapolis Center
Sun 11:29:53 AM 41.5803 -93.0814 263° West 175 201 5,900 -298 Descending Minneapolis Center
Sun 11:30:54 AM 41.5742 -93.1478 255° West 185 213 5,400 -517 Descending Minneapolis Center
Sun 11:31:49 AM 41.5619 -93.2089 258° West 185 213 4,900 -522 Descending Minneapolis Center
Sun 11:32:49 AM 41.5517 -93.2725 258° West 179 206 4,400 -446 Descending Minneapolis Center
Sun 11:33:50 AM 41.5414 -93.3364 258° West 178 205 4,000 -248 Descending Minneapolis Center
Sun 11:34:50 AM 41.5308 -93.4000 258° West 169 194 3,900  Descending Minneapolis Center
Sun 11:35:51 AM 41.5225 -93.4525 259° West 156 180 4,000 49 Climbing Minneapolis Center
Sun 11:36:52 AM 41.5142 -93.5081 254° West 153 176 4,000  Level Minneapolis Center
Sun 11:37:52 AM 41.5017 -93.5661 237° Southwest 151 174 4,000  Level Minneapolis Center
Sun 11:38:53 AM 41.4789 -93.6131 236° Southwest 147 169 4,000  Level Minneapolis Center
Sun 11:40:00 AM 41.4536 -93.6628 237° Southwest 149 171 4,000  Level Minneapolis Center
Sun 11:41:00 AM 41.4308 -93.7097 240° Southwest 149 171 4,000  Level Minneapolis Center
Sun 11:42:01 AM 41.4097 -93.7594 264° West 150 173 4,000 -98 Level Minneapolis Center
Sun 11:43:02 AM 41.4056 -93.8092 264° West 163 188 3,800 -197 Descending Minneapolis Center

Login

Don't have an account? Register now (free) for customized features, flight alerts, and more!